Goch-Asperden Airport

EDLG · North Rhine-Westphalia, 德国

罗盘
风向 的 风向 的 风向 到 风向 220° Goch-Asperden Airport 10/28
风: 11 kt, 4 beaufort

6 kt

9 kt
改变
0 10.000 20.000 30.000 40.000
FEW 38.000 ft
METAR EHEH 041355Z AUTO 22011KT 190V250 9999 FEW380 19/10 Q1019 BLU NOSIG

METAR Goch-Asperden Airport - EDLG

Goch-Asperden Airport是Goch,德国中的小机场。 该机场有一条跑道: 10/28. 该领域的国际民航组织标志是EDLG.

这份报告是针对2022年10月4日 15:55, 当地时间在Eindhoven Airport进行的。

机场观察

风向为220°,速度为11 kt。 风向在190°和250°之间变化。

可见度为10 km 或者更多。

有几云在38.000 ft的高度。 没有观察到天花板。

温度和风寒是19 °C。 露点为10 °C,相对湿度为56%。 海平面上的气压为1019 hPa (QNH)。

白天

今天,太阳从07:41升起,在19:07降落。 这适用于Goch-Asperden Airport,世界夏令时可能有所不同。 当地时间与世界标准时间之间的时差为+2 小时。 夏令时目前正在进行中。

公司介绍

我们没有关于这个机场的公司信息。

体会

到Vliegles.nl去找飞行课程,跳伞和其他飞行体验。 浏览页面,了解Goch-Asperden Airport附近所有可用的活动。 你也可以使用搜索功能来寻找你所在地附近的特定飞行课程、跳伞或其他飞行体验。

跑道

Id 标题 侧风 逆风 侧风 %
10/28 099°-279° 9 kt 6 kt 86 %

逆风成分最大的方向会被突出显示,并用于横风计算。 这并不一定意味着这个方向在使用。

乌云

38.000 ft FEW 几云

温度 & 天气

温度 19 °C
露点 10 °C
相对湿度 56%
Kp-index 1 (0-9)

白天

日出
07:44
中午
13:27
日落
19:10 (2h 53m)

小工具

你想在你的网站上有一个关于Goch-Asperden Airport的当前航空天气(METAR)的小部件吗?

</> 显示HTML代码

我们和第三方通过cookies跟踪您在我们网站上的上网行为。如果您继续,我们认为您同意我们的cookie政策。 了解更多